createdAt,value
2022-10-17T00:00:13.001Z,10.60
2022-10-17T00:02:39.976Z,12.97
2022-10-17T00:05:06.945Z,10.87
2022-10-17T00:07:33.862Z,10.87
2022-10-17T00:10:00.719Z,11.47
2022-10-17T00:12:27.591Z,10.90
2022-10-17T00:14:54.435Z,9.57
2022-10-17T00:17:22.207Z,10.10
2022-10-17T00:19:49.084Z,8.43
2022-10-17T00:22:15.973Z,9.17
2022-10-17T00:24:43.100Z,9.10
2022-10-17T00:27:10.093Z,8.57
2022-10-17T00:29:37.141Z,8.97
2022-10-17T00:32:04.018Z,8.07
2022-10-17T00:34:31.534Z,9.40
2022-10-17T00:36:58.395Z,7.30
2022-10-17T00:39:25.283Z,8.30
2022-10-17T00:41:52.158Z,7.83
2022-10-17T00:44:56.345Z,8.33
2022-10-17T00:47:23.323Z,12.07
2022-10-17T00:49:50.951Z,8.23
2022-10-17T00:52:20.032Z,7.73
2022-10-17T00:54:48.689Z,7.00
2022-10-17T00:57:15.915Z,6.30
2022-10-17T00:59:44.306Z,10.43
2022-10-17T01:02:12.816Z,7.00
2022-10-17T01:04:40.937Z,9.00
2022-10-17T01:07:08.469Z,7.93
2022-10-17T01:09:35.897Z,10.03
2022-10-17T01:12:07.813Z,7.23
2022-10-17T01:14:40.565Z,5.63
2022-10-17T01:17:11.781Z,6.23
2022-10-17T01:19:54.051Z,6.00
2022-10-17T01:22:26.349Z,5.50
2022-10-17T01:25:02.069Z,6.03
2022-10-17T01:27:38.438Z,7.50
2022-10-17T01:30:34.868Z,11.73
2022-10-17T01:33:06.808Z,6.10
2022-10-17T01:35:37.219Z,9.03
2022-10-17T01:38:06.680Z,6.70
2022-10-17T01:40:36.007Z,5.97
2022-10-17T01:43:04.712Z,6.83
2022-10-17T01:45:33.952Z,6.47
2022-10-17T01:48:04.169Z,6.60
2022-10-17T01:50:33.449Z,7.83
2022-10-17T01:53:02.520Z,8.80
2022-10-17T01:55:32.109Z,6.17
2022-10-17T01:58:01.489Z,6.73
2022-10-17T02:00:28.395Z,6.50
2022-10-17T02:02:57.018Z,6.93
2022-10-17T02:05:25.459Z,9.13
2022-10-17T02:07:52.967Z,9.80
2022-10-17T02:10:23.778Z,7.00
2022-10-17T02:12:53.561Z,6.47
2022-10-17T02:15:36.172Z,7.30
2022-10-17T02:18:09.357Z,8.60
2022-10-17T02:20:37.841Z,7.07
2022-10-17T02:23:09.646Z,7.23
2022-10-17T02:25:40.839Z,8.83
2022-10-17T02:28:16.560Z,7.40
2022-10-17T02:30:45.523Z,8.40
2022-10-17T02:33:14.171Z,8.30
2022-10-17T02:35:43.535Z,8.90
2022-10-17T02:38:11.603Z,9.30
2022-10-17T02:40:40.197Z,8.33
2022-10-17T02:43:07.175Z,6.80
2022-10-17T02:45:35.550Z,6.83
2022-10-17T02:48:04.556Z,8.63
2022-10-17T02:50:36.160Z,8.50
2022-10-17T02:53:05.920Z,9.33
2022-10-17T02:55:34.940Z,6.77
2022-10-17T02:58:04.831Z,10.53
2022-10-17T03:00:32.173Z,6.53
2022-10-17T03:02:59.047Z,6.30
2022-10-17T03:05:27.905Z,6.93
2022-10-17T03:07:55.103Z,7.23
2022-10-17T03:10:22.075Z,9.57
2022-10-17T03:12:49.614Z,7.40
2022-10-17T03:15:16.727Z,7.43
2022-10-17T03:20:15.451Z,7.27
2022-10-17T03:22:42.347Z,9.47
2022-10-17T03:25:09.322Z,7.67
2022-10-17T03:27:36.136Z,6.10
2022-10-17T03:30:03.982Z,6.10
2022-10-17T03:32:33.255Z,7.80
2022-10-17T03:35:00.102Z,6.83
2022-10-17T03:37:27.353Z,6.53
2022-10-17T03:39:54.295Z,8.17
2022-10-17T03:42:21.147Z,10.17
2022-10-17T03:44:48.009Z,7.73
2022-10-17T03:47:15.533Z,7.97
2022-10-17T03:49:42.372Z,8.67
2022-10-17T03:52:11.408Z,6.93
2022-10-17T03:54:38.277Z,6.80
2022-10-17T03:57:05.130Z,6.87
2022-10-17T03:59:32.067Z,7.13
2022-10-17T04:01:58.952Z,6.77
2022-10-17T04:04:26.695Z,11.37
2022-10-17T04:06:53.574Z,8.57
2022-10-17T04:09:20.393Z,7.37
2022-10-17T04:11:47.229Z,9.23
2022-10-17T04:14:14.116Z,7.63
2022-10-17T04:16:41.014Z,7.47
2022-10-17T04:19:08.156Z,7.67
2022-10-17T04:21:35.677Z,7.73
2022-10-17T04:24:02.514Z,7.73
2022-10-17T04:26:29.374Z,8.33
2022-10-17T04:28:56.217Z,8.80
2022-10-17T04:31:23.148Z,8.77
2022-10-17T04:33:50.671Z,9.43
2022-10-17T04:36:18.931Z,11.47
2022-10-17T04:38:46.504Z,9.43
2022-10-17T04:41:14.472Z,8.10
2022-10-17T04:43:43.549Z,8.23
2022-10-17T04:46:14.573Z,7.70
2022-10-17T04:48:41.610Z,7.97
2022-10-17T04:51:10.651Z,9.33
2022-10-17T04:53:38.138Z,8.00
2022-10-17T04:56:08.802Z,8.43
2022-10-17T04:58:35.641Z,10.50
2022-10-17T05:01:05.098Z,8.97
2022-10-17T05:03:32.007Z,9.70
2022-10-17T05:05:58.821Z,10.20
2022-10-17T05:08:25.690Z,11.07
2022-10-17T05:10:52.546Z,14.13
2022-10-17T05:13:20.108Z,11.00
2022-10-17T05:15:46.936Z,11.33
2022-10-17T05:18:13.800Z,11.97
2022-10-17T05:20:40.625Z,12.60
2022-10-17T05:23:07.477Z,14.07
2022-10-17T05:25:34.318Z,12.23
2022-10-17T05:28:01.167Z,12.33
2022-10-17T05:30:29.382Z,13.57
2022-10-17T05:32:57.544Z,13.13
2022-10-17T05:35:24.431Z,11.33
2022-10-17T05:37:51.378Z,13.20
2022-10-17T05:40:18.557Z,11.73
2022-10-17T05:42:48.831Z,11.57
2022-10-17T05:45:16.189Z,11.30
2022-10-17T05:47:43.758Z,11.20
2022-10-17T05:50:10.947Z,16.10
2022-10-17T05:52:37.781Z,12.90
2022-10-17T05:55:05.292Z,12.67
2022-10-17T05:57:32.138Z,16.13
2022-10-17T06:00:00.111Z,13.00
2022-10-17T06:02:27.388Z,13.13
2022-10-17T06:04:55.153Z,12.63
2022-10-17T06:07:21.958Z,12.80
2022-10-17T06:09:48.842Z,14.27
2022-10-17T06:12:15.685Z,12.13
2022-10-17T06:14:42.591Z,13.10
2022-10-17T06:17:14.855Z,11.43
2022-10-17T06:19:43.765Z,13.70
2022-10-17T06:22:11.358Z,13.30
2022-10-17T06:24:38.261Z,11.90
2022-10-17T06:27:09.451Z,11.60
2022-10-17T06:29:39.099Z,10.57
2022-10-17T06:32:08.603Z,9.63
2022-10-17T06:34:38.134Z,10.33
2022-10-17T06:37:04.959Z,11.50
2022-10-17T06:39:33.222Z,11.07
2022-10-17T06:42:00.148Z,10.27
2022-10-17T06:44:30.865Z,9.93
2022-10-17T06:46:58.100Z,9.63
2022-10-17T06:49:25.040Z,11.43
2022-10-17T06:51:52.045Z,10.13
2022-10-17T06:54:18.868Z,30.63
2022-10-17T06:56:48.576Z,11.13
2022-10-17T06:59:15.491Z,9.40
2022-10-17T07:01:44.679Z,11.10
2022-10-17T07:04:13.963Z,9.33
2022-10-17T07:06:40.853Z,12.67
2022-10-17T07:09:08.959Z,9.13
2022-10-17T07:11:41.886Z,13.37
2022-10-17T07:14:09.394Z,9.97
2022-10-17T07:16:36.358Z,8.67
2022-10-17T07:19:03.205Z,7.23
2022-10-17T07:21:32.096Z,7.20
2022-10-17T07:24:00.796Z,7.87
2022-10-17T07:26:27.635Z,6.27
2022-10-17T07:28:55.289Z,10.47
2022-10-17T07:31:23.457Z,9.93
2022-10-17T07:33:51.000Z,7.30
2022-10-17T07:36:18.135Z,6.53
2022-10-17T07:38:45.002Z,10.77
2022-10-17T07:41:13.697Z,8.97
2022-10-17T07:43:42.284Z,6.27
2022-10-17T07:46:10.733Z,5.97
2022-10-17T07:48:38.961Z,5.17
2022-10-17T07:51:08.505Z,9.17
2022-10-17T07:53:36.306Z,6.30
2022-10-17T07:56:04.602Z,4.67
2022-10-17T07:58:31.930Z,5.50
2022-10-17T08:03:32.858Z,5.17
2022-10-17T08:06:01.190Z,4.60
2022-10-17T08:08:28.049Z,4.77
2022-10-17T08:10:55.649Z,5.03
2022-10-17T08:13:23.960Z,5.80
2022-10-17T08:15:50.880Z,3.90
2022-10-17T08:18:17.780Z,3.97
2022-10-17T08:20:44.729Z,2.97
2022-10-17T08:23:11.943Z,7.23
2022-10-17T08:25:39.266Z,3.50
2022-10-17T08:30:38.001Z,3.80
2022-10-17T08:33:05.114Z,4.00
2022-10-17T08:35:32.016Z,8.13
2022-10-17T08:38:01.314Z,3.53
2022-10-17T08:40:32.926Z,4.80
2022-10-17T08:43:30.330Z,3.33
2022-10-17T08:46:02.279Z,2.60
2022-10-17T08:48:32.598Z,3.87
2022-10-17T08:51:02.587Z,2.80
2022-10-17T08:53:34.043Z,3.40
2022-10-17T08:56:11.904Z,3.23
2022-10-17T08:58:42.149Z,4.40
2022-10-17T09:01:21.814Z,4.77
2022-10-17T09:04:04.797Z,3.33
2022-10-17T09:06:34.887Z,5.77
2022-10-17T09:09:12.274Z,3.07
2022-10-17T09:11:56.343Z,3.87
2022-10-17T09:14:37.727Z,3.73
2022-10-17T09:17:15.326Z,4.33
2022-10-17T09:19:48.764Z,3.03
2022-10-17T09:22:19.877Z,2.63
2022-10-17T09:24:52.159Z,3.53
2022-10-17T09:27:25.160Z,2.93
2022-10-17T09:30:00.738Z,3.60
2022-10-17T09:32:28.520Z,2.93
2022-10-17T09:34:55.954Z,3.30
2022-10-17T09:37:32.599Z,7.55
2022-10-17T09:39:59.746Z,5.27
2022-10-17T09:42:27.885Z,2.80
2022-10-17T09:45:03.966Z,3.47
2022-10-17T09:47:34.603Z,2.83
2022-10-17T09:50:01.825Z,3.93
2022-10-17T09:52:33.127Z,10.97
2022-10-17T09:55:05.072Z,2.97
2022-10-17T09:57:53.020Z,3.93
2022-10-17T10:00:23.235Z,3.57
2022-10-17T10:03:12.093Z,3.13
2022-10-17T10:05:43.366Z,5.50
2022-10-17T10:08:15.292Z,3.63
2022-10-17T10:10:45.450Z,5.73
2022-10-17T10:13:20.241Z,4.00
2022-10-17T10:15:50.487Z,3.20
2022-10-17T10:18:32.649Z,2.07
2022-10-17T10:21:07.006Z,3.80
2022-10-17T10:23:34.052Z,3.07
2022-10-17T10:26:04.056Z,3.73
2022-10-17T10:28:34.357Z,2.73
2022-10-17T10:31:04.570Z,2.00
2022-10-17T10:33:33.152Z,3.27
2022-10-17T10:36:02.667Z,3.83
2022-10-17T10:38:36.736Z,3.93
2022-10-17T10:41:10.135Z,3.37
2022-10-17T10:43:38.954Z,2.53
2022-10-17T10:46:18.061Z,3.43
2022-10-17T10:48:51.266Z,4.90
2022-10-17T10:51:23.039Z,6.40
2022-10-17T10:53:55.573Z,4.03
2022-10-17T10:56:28.714Z,3.35
2022-10-17T10:59:02.626Z,5.07
2022-10-17T11:01:38.708Z,6.03
2022-10-17T11:04:19.243Z,4.45
2022-10-17T11:06:47.503Z,6.50
2022-10-17T11:09:24.099Z,2.85
2022-10-17T11:12:00.550Z,4.03
2022-10-17T11:14:38.166Z,3.88
2022-10-17T11:17:14.713Z,4.47
2022-10-17T11:19:51.094Z,2.90
2022-10-17T11:22:26.587Z,3.85
2022-10-17T11:25:01.919Z,4.15
2022-10-17T11:27:29.962Z,4.30
2022-10-17T11:29:58.086Z,2.00
2022-10-17T11:32:32.010Z,3.10
2022-10-17T11:35:03.609Z,2.13
2022-10-17T11:37:36.123Z,4.18
2022-10-17T11:40:07.769Z,3.08
2022-10-17T11:42:46.124Z,4.63
2022-10-17T11:45:17.846Z,3.72
2022-10-17T11:47:47.776Z,3.63
2022-10-17T11:53:14.501Z,4.10
2022-10-17T11:55:41.515Z,6.17
2022-10-17T11:58:24.831Z,3.57
2022-10-17T12:01:00.170Z,6.63
2022-10-17T12:03:39.797Z,2.30
2022-10-17T12:06:13.422Z,2.80
2022-10-17T12:08:46.526Z,4.97
2022-10-17T12:11:23.569Z,5.93
2022-10-17T12:13:53.838Z,4.13
2022-10-17T12:16:46.717Z,4.43
2022-10-17T12:19:36.992Z,5.80
2022-10-17T12:22:16.844Z,4.83
2022-10-17T12:24:45.031Z,4.17
2022-10-17T12:27:42.854Z,2.90
2022-10-17T12:30:29.509Z,4.87
2022-10-17T12:33:07.455Z,5.67
2022-10-17T12:35:36.832Z,5.23
2022-10-17T12:38:20.032Z,5.10
2022-10-17T12:40:52.539Z,3.50
2022-10-17T12:43:44.792Z,5.03
2022-10-17T12:46:12.232Z,5.07
2022-10-17T12:49:03.999Z,6.90
2022-10-17T12:52:20.893Z,4.80
2022-10-17T12:55:07.202Z,4.93
2022-10-17T12:57:43.980Z,5.53
2022-10-17T13:01:22.750Z,5.50
2022-10-17T13:03:49.128Z,4.03
2022-10-17T13:06:21.071Z,5.67
2022-10-17T13:08:55.556Z,3.70
2022-10-17T13:11:27.986Z,3.73
2022-10-17T13:13:57.779Z,4.57
2022-10-17T13:16:28.770Z,5.30
2022-10-17T13:18:55.868Z,6.03
2022-10-17T13:21:24.178Z,5.00
2022-10-17T13:23:53.685Z,3.97
2022-10-17T13:26:22.065Z,5.47
2022-10-17T13:29:01.803Z,7.37
2022-10-17T13:31:31.074Z,2.80
2022-10-17T13:33:59.422Z,5.93
2022-10-17T13:36:28.008Z,9.70
2022-10-17T13:38:57.431Z,8.00
2022-10-17T13:41:35.869Z,5.47
2022-10-17T13:44:07.287Z,6.90
2022-10-17T13:46:39.152Z,7.23
2022-10-17T13:49:15.169Z,4.27
2022-10-17T13:51:45.885Z,4.07
2022-10-17T13:54:31.400Z,3.70
2022-10-17T13:56:58.779Z,4.70
2022-10-17T13:59:29.660Z,4.07
2022-10-17T14:01:56.613Z,4.10
2022-10-17T14:04:23.522Z,5.60
2022-10-17T14:06:52.341Z,5.50
2022-10-17T14:09:22.935Z,2.60
2022-10-17T14:11:58.888Z,5.20
2022-10-17T14:14:26.660Z,3.47
2022-10-17T14:16:53.818Z,2.53
2022-10-17T14:19:25.498Z,5.03
2022-10-17T14:21:54.256Z,4.23
2022-10-17T14:24:29.284Z,8.70
2022-10-17T14:26:58.734Z,4.33
2022-10-17T14:29:27.019Z,4.10
2022-10-17T14:32:03.233Z,3.43
2022-10-17T14:34:34.100Z,5.73
2022-10-17T14:37:02.004Z,3.63
2022-10-17T14:39:29.793Z,3.73
2022-10-17T14:41:58.701Z,3.63
2022-10-17T14:44:31.387Z,3.90
2022-10-17T14:47:05.918Z,6.10
2022-10-17T14:49:41.149Z,5.50
2022-10-17T14:52:30.789Z,5.17
2022-10-17T14:54:59.733Z,3.30
2022-10-17T14:57:34.479Z,5.43
2022-10-17T15:00:01.375Z,4.60
2022-10-17T15:02:29.621Z,4.13
2022-10-17T15:04:56.998Z,6.93
2022-10-17T15:07:24.625Z,6.90
2022-10-17T15:09:53.346Z,4.67
2022-10-17T15:12:22.317Z,6.00
2022-10-17T15:14:49.941Z,4.53
2022-10-17T15:17:19.987Z,5.70
2022-10-17T15:19:47.003Z,6.30
2022-10-17T15:22:15.353Z,7.57
2022-10-17T15:24:42.769Z,4.87
2022-10-17T15:27:16.623Z,7.27
2022-10-17T15:29:43.664Z,5.27
2022-10-17T15:32:10.559Z,6.33
2022-10-17T15:34:37.416Z,6.33
2022-10-17T15:37:05.890Z,5.10
2022-10-17T15:39:32.765Z,6.70
2022-10-17T15:41:59.986Z,5.60
2022-10-17T15:44:28.199Z,5.23
2022-10-17T15:46:56.587Z,3.83
2022-10-17T15:49:23.532Z,7.17
2022-10-17T15:51:55.047Z,5.90
2022-10-17T15:54:22.318Z,7.77
2022-10-17T15:56:53.731Z,6.53
2022-10-17T15:59:25.894Z,8.97
2022-10-17T16:01:52.808Z,4.33
2022-10-17T16:04:19.898Z,7.43
2022-10-17T16:06:46.799Z,8.20
2022-10-17T16:09:13.712Z,4.87
2022-10-17T16:11:42.351Z,4.30
2022-10-17T16:14:13.618Z,4.83
2022-10-17T16:16:41.273Z,9.20
2022-10-17T16:19:08.501Z,5.33
2022-10-17T16:21:38.618Z,5.43
2022-10-17T16:24:05.966Z,5.33
2022-10-17T16:26:33.261Z,7.23
2022-10-17T16:29:02.036Z,8.63
2022-10-17T16:31:30.930Z,6.47
2022-10-17T16:33:59.324Z,6.50
2022-10-17T16:36:26.421Z,11.07
2022-10-17T16:38:53.579Z,11.50
2022-10-17T16:41:23.020Z,11.53
2022-10-17T16:43:50.298Z,9.97
2022-10-17T16:46:18.244Z,11.10
2022-10-17T16:48:45.888Z,18.87
2022-10-17T16:51:14.072Z,13.13
2022-10-17T16:53:43.104Z,11.73
2022-10-17T16:56:11.615Z,10.50
2022-10-17T16:58:38.800Z,6.03
2022-10-17T17:01:07.558Z,12.97
2022-10-17T17:03:36.611Z,6.20
2022-10-17T17:06:03.777Z,5.50
2022-10-17T17:08:31.279Z,13.27
2022-10-17T17:10:58.250Z,12.57
2022-10-17T17:13:25.471Z,10.53
2022-10-17T17:15:54.070Z,14.53
2022-10-17T17:18:21.085Z,13.60
2022-10-17T17:20:47.989Z,7.83
2022-10-17T17:23:15.965Z,9.33
2022-10-17T17:25:44.587Z,6.97
2022-10-17T17:28:12.846Z,7.90
2022-10-17T17:30:39.787Z,7.43
2022-10-17T17:33:06.688Z,8.37
2022-10-17T17:35:33.574Z,8.90
2022-10-17T17:38:02.305Z,11.67
2022-10-17T17:40:29.419Z,9.07
2022-10-17T17:42:56.756Z,9.90
2022-10-17T17:45:23.780Z,7.17
2022-10-17T17:47:50.917Z,11.13
2022-10-17T17:50:18.018Z,10.27
2022-10-17T17:52:47.964Z,9.10
2022-10-17T17:55:14.983Z,7.80
2022-10-17T17:57:41.886Z,8.00
2022-10-17T18:00:11.158Z,8.40
2022-10-17T18:02:42.120Z,8.97
2022-10-17T18:05:13.164Z,7.27
2022-10-17T18:07:40.204Z,10.07
2022-10-17T18:10:07.992Z,6.47
2022-10-17T18:12:35.051Z,7.70
2022-10-17T18:15:02.362Z,10.13
2022-10-17T18:17:30.115Z,8.47
2022-10-17T18:19:57.044Z,6.43
2022-10-17T18:22:23.894Z,7.40
2022-10-17T18:24:50.835Z,7.43
2022-10-17T18:27:18.011Z,10.83
2022-10-17T18:29:45.504Z,7.67
2022-10-17T18:32:12.391Z,12.87
2022-10-17T18:34:39.577Z,9.10
2022-10-17T18:37:06.426Z,11.30
2022-10-17T18:39:33.380Z,11.27
2022-10-17T18:42:00.627Z,6.50
2022-10-17T18:44:27.787Z,9.43
2022-10-17T18:46:58.507Z,13.70
2022-10-17T18:49:28.390Z,9.93
2022-10-17T18:51:55.863Z,7.90
2022-10-17T18:54:23.663Z,13.40
2022-10-17T18:56:51.783Z,12.07
2022-10-17T18:59:18.877Z,7.87
2022-10-17T19:01:45.918Z,10.27
2022-10-17T19:04:13.002Z,10.93
2022-10-17T19:06:40.508Z,10.20
2022-10-17T19:09:09.365Z,10.07
2022-10-17T19:11:37.426Z,8.47
2022-10-17T19:14:05.516Z,7.77
2022-10-17T19:16:33.878Z,7.43
2022-10-17T19:19:03.822Z,9.10
2022-10-17T19:21:30.835Z,10.87
2022-10-17T19:24:00.424Z,10.07
2022-10-17T19:26:29.336Z,10.63
2022-10-17T19:28:56.328Z,11.33
2022-10-17T19:31:27.114Z,11.13
2022-10-17T19:33:55.451Z,8.57
2022-10-17T19:36:27.478Z,10.87
2022-10-17T19:38:58.103Z,10.20
2022-10-17T19:41:25.552Z,14.53
2022-10-17T19:43:53.748Z,9.50
2022-10-17T19:46:22.392Z,12.37
2022-10-17T19:48:50.305Z,15.73
2022-10-17T19:51:19.861Z,15.60
2022-10-17T19:53:47.320Z,8.90
2022-10-17T19:56:18.242Z,9.93
2022-10-17T19:58:46.003Z,10.83
2022-10-17T20:01:15.581Z,11.87
2022-10-17T20:03:43.118Z,10.23
2022-10-17T20:06:13.138Z,11.97
2022-10-17T20:08:40.439Z,13.33
2022-10-17T20:11:09.245Z,13.40
2022-10-17T20:13:37.036Z,13.13
2022-10-17T20:16:05.152Z,12.03
2022-10-17T20:18:33.450Z,10.33
2022-10-17T20:21:04.046Z,11.13
2022-10-17T20:23:30.943Z,15.47
2022-10-17T20:26:06.635Z,12.93
2022-10-17T20:28:40.371Z,15.50
2022-10-17T20:31:07.645Z,16.03
2022-10-17T20:33:35.205Z,16.63
2022-10-17T20:36:05.044Z,13.33
2022-10-17T20:38:31.996Z,16.33
2022-10-17T20:41:00.710Z,11.70
2022-10-17T20:43:27.607Z,11.90
2022-10-17T20:46:03.536Z,13.50
2022-10-17T20:48:36.685Z,12.40
2022-10-17T20:51:07.096Z,15.20
2022-10-17T20:53:37.858Z,12.97
2022-10-17T20:56:06.520Z,13.13
2022-10-17T20:58:33.407Z,14.87
2022-10-17T21:01:05.914Z,11.43
2022-10-17T21:03:35.937Z,11.73
2022-10-17T21:06:03.168Z,12.60
2022-10-17T21:08:30.068Z,11.17
2022-10-17T21:11:06.843Z,11.97
2022-10-17T21:13:33.859Z,14.93
2022-10-17T21:16:05.213Z,12.87
2022-10-17T21:18:32.171Z,12.47
2022-10-17T21:21:08.081Z,11.40
2022-10-17T21:23:35.055Z,16.07
2022-10-17T21:26:03.338Z,10.83
2022-10-17T21:28:30.429Z,13.87
2022-10-17T21:31:10.265Z,14.00
2022-10-17T21:33:37.143Z,14.10
2022-10-17T21:36:04.589Z,15.20
2022-10-17T21:38:32.162Z,11.97
2022-10-17T21:41:03.025Z,13.43
2022-10-17T21:43:30.037Z,10.97
2022-10-17T21:45:57.004Z,12.23
2022-10-17T21:48:23.894Z,14.00
2022-10-17T21:50:57.063Z,12.83
2022-10-17T21:53:23.939Z,16.33
2022-10-17T21:55:52.601Z,11.87
2022-10-17T21:58:20.282Z,13.67
2022-10-17T22:00:47.193Z,11.03
2022-10-17T22:03:16.133Z,15.33
2022-10-17T22:05:44.133Z,12.20
2022-10-17T22:08:12.207Z,14.13
2022-10-17T22:10:39.313Z,19.57
2022-10-17T22:13:06.803Z,17.20
2022-10-17T22:15:33.715Z,13.53
2022-10-17T22:18:00.688Z,14.00
2022-10-17T22:20:27.538Z,10.40
2022-10-17T22:22:54.373Z,15.17
2022-10-17T22:25:21.244Z,15.43
2022-10-17T22:27:48.150Z,11.17
2022-10-17T22:30:15.864Z,14.03
2022-10-17T22:32:42.930Z,16.30
2022-10-17T22:35:09.831Z,12.60
2022-10-17T22:37:36.703Z,16.30
2022-10-17T22:40:03.805Z,17.23
2022-10-17T22:42:30.666Z,16.77
2022-10-17T22:44:57.563Z,14.03
2022-10-17T22:47:25.109Z,15.27
2022-10-17T22:49:52.535Z,12.43
2022-10-17T22:52:19.373Z,13.93
2022-10-17T22:54:46.304Z,11.73
2022-10-17T22:57:13.285Z,13.97
2022-10-17T22:59:39.922Z,13.93
2022-10-17T23:02:07.038Z,13.77
2022-10-17T23:04:34.300Z,13.83
2022-10-17T23:07:01.335Z,13.60
2022-10-17T23:09:28.194Z,11.17
2022-10-17T23:11:55.092Z,14.77
2022-10-17T23:14:22.023Z,13.57
2022-10-17T23:16:48.866Z,17.77
2022-10-17T23:19:15.832Z,13.83
2022-10-17T23:21:44.005Z,14.60
2022-10-17T23:24:10.913Z,14.67
2022-10-17T23:26:37.805Z,16.43
2022-10-17T23:29:04.767Z,13.87
2022-10-17T23:31:31.808Z,17.33
2022-10-17T23:33:58.502Z,16.83
2022-10-17T23:36:25.461Z,15.60
2022-10-17T23:38:55.108Z,17.73
2022-10-17T23:41:25.328Z,14.60
2022-10-17T23:43:52.281Z,16.70
2022-10-17T23:46:19.291Z,16.27
2022-10-17T23:48:46.175Z,16.13
2022-10-17T23:51:13.345Z,18.03
2022-10-17T23:53:40.409Z,12.93
2022-10-17T23:56:09.631Z,21.30
2022-10-17T23:58:36.641Z,16.40
